Time;durP1;ratioP1;P1;durP2;ratioP2;P2;SDS_P1;SDS_P2;PMS_P1;PMS_P2;Temp;Humidity;BMP_temperature;BMP_pressure;BME280_temperature;BME280_humidity;BME280_pressure;Samples;Min_cycle;Max_cycle;Signal;HPM_P1;HPM_P2
2022/11/24 00:00:13;;;;;;;10.38;4.20;;;19.80;99.90;;;;;;4227847;28;20218;-76
2022/11/24 00:02:15;;;;;;;10.23;4.25;;;19.80;99.90;;;;;;4226453;28;20262;-76
2022/11/24 00:04:17;;;;;;;8.70;4.38;;;19.80;99.90;;;;;;4220993;28;20221;-76
2022/11/24 00:06:20;;;;;;;11.07;4.60;;;19.80;99.90;;;;;;4224765;28;20209;-76
2022/11/24 00:08:22;;;;;;;11.23;4.20;;;19.80;99.90;;;;;;4233882;28;20228;-76
2022/11/24 00:10:24;;;;;;;8.32;4.03;;;19.80;99.90;;;;;;4221423;28;20218;-76
2022/11/24 00:12:27;;;;;;;10.15;4.30;;;19.80;99.90;;;;;;4235417;28;20254;-76
2022/11/24 00:14:30;;;;;;;7.15;4.07;;;19.80;99.90;;;;;;4240280;28;20586;-76
2022/11/24 00:16:35;;;;;;;12.70;4.55;;;19.80;99.90;;;;;;4242798;28;20226;-77
2022/11/24 00:18:38;;;;;;;9.23;4.40;;;19.80;99.90;;;;;;4227085;28;20294;-76
2022/11/24 00:20:40;;;;;;;9.82;4.35;;;19.70;99.90;;;;;;4233276;28;20248;-77
2022/11/24 00:22:42;;;;;;;8.77;3.97;;;19.70;99.90;;;;;;4238344;28;20225;-76
2022/11/24 00:24:45;;;;;;;7.75;3.70;;;19.80;99.90;;;;;;4242033;27;20254;-76
2022/11/24 00:26:47;;;;;;;10.98;4.30;;;19.70;99.90;;;;;;4233198;28;20269;-76
2022/11/24 00:28:51;;;;;;;7.40;3.72;;;19.70;99.90;;;;;;4231588;27;20209;-76
2022/11/24 00:30:55;;;;;;;11.20;4.45;;;19.70;99.90;;;;;;4237790;28;20259;-76
2022/11/24 00:32:57;;;;;;;9.55;4.07;;;19.70;99.90;;;;;;4238297;28;20594;-77
2022/11/24 00:34:59;;;;;;;10.23;3.92;;;19.70;99.90;;;;;;4246831;27;20228;-76
2022/11/24 00:37:02;;;;;;;8.35;3.75;;;19.70;99.90;;;;;;4245159;27;20718;-76
2022/11/24 00:39:06;;;;;;;11.13;4.60;;;19.70;99.90;;;;;;4238263;28;20657;-76
2022/11/24 00:41:09;;;;;;;9.20;4.05;;;19.70;99.90;;;;;;4240114;27;20213;-76
2022/11/24 00:43:11;;;;;;;9.25;3.88;;;19.70;99.90;;;;;;4240213;28;20217;-77
2022/11/24 00:45:13;;;;;;;8.20;4.30;;;19.60;99.90;;;;;;4237686;27;20964;-76
2022/11/24 00:47:17;;;;;;;10.00;4.32;;;19.60;99.90;;;;;;4241483;27;20221;-77
2022/11/24 00:49:19;;;;;;;12.18;4.10;;;19.70;99.90;;;;;;4244539;27;20254;-77
2022/11/24 00:51:25;;;;;;;11.63;4.03;;;19.60;99.90;;;;;;4245472;27;20653;-76
2022/11/24 00:53:28;;;;;;;8.07;3.78;;;19.70;99.90;;;;;;4241238;27;20213;-76
2022/11/24 00:55:30;;;;;;;10.32;3.80;;;19.70;99.90;;;;;;4245378;27;20750;-76
2022/11/24 00:57:34;;;;;;;9.27;4.10;;;19.70;99.90;;;;;;4243403;27;20278;-76
2022/11/24 00:59:37;;;;;;;8.02;4.03;;;19.60;99.90;;;;;;4244537;27;20209;-83
2022/11/24 01:01:40;;;;;;;11.00;4.00;;;19.60;99.90;;;;;;4246581;27;20266;-83
2022/11/24 01:03:45;;;;;;;8.45;3.92;;;19.60;99.90;;;;;;4245720;27;20217;-83
2022/11/24 01:05:48;;;;;;;9.43;4.13;;;19.60;99.90;;;;;;4247316;27;20209;-83
2022/11/24 01:07:50;;;;;;;7.40;3.80;;;19.60;99.90;;;;;;4246146;27;20635;-83
2022/11/24 01:09:52;;;;;;;7.40;3.80;;;19.60;99.90;;;;;;4247543;27;20269;-83
2022/11/24 01:12:01;;;;;;;8.38;3.30;;;19.60;99.90;;;;;;4247735;27;20209;-83
2022/11/24 01:14:03;;;;;;;8.70;4.05;;;19.60;99.90;;;;;;4246930;27;20267;-83
2022/11/24 01:16:06;;;;;;;9.57;4.05;;;19.60;99.90;;;;;;4246992;27;20240;-83
2022/11/24 01:18:08;;;;;;;7.60;3.67;;;19.60;99.90;;;;;;4245228;27;20221;-83
2022/11/24 01:20:12;;;;;;;11.20;4.05;;;19.60;99.90;;;;;;4242132;27;20229;-83
2022/11/24 01:22:15;;;;;;;9.25;4.07;;;19.60;99.90;;;;;;4246920;27;20209;-83
2022/11/24 01:24:17;;;;;;;8.00;4.25;;;19.60;99.90;;;;;;4243421;27;20285;-83
2022/11/24 01:26:22;;;;;;;8.43;3.95;;;19.60;99.90;;;;;;4245772;27;20213;-83
2022/11/24 01:28:25;;;;;;;7.47;3.83;;;19.50;99.90;;;;;;4244506;27;20209;-83
2022/11/24 01:30:27;;;;;;;6.53;3.30;;;19.60;99.90;;;;;;4246797;27;20262;-84
2022/11/24 01:32:31;;;;;;;8.40;3.65;;;19.50;99.90;;;;;;4245224;27;20270;-83
2022/11/24 01:34:33;;;;;;;8.50;3.55;;;19.60;99.90;;;;;;4246702;27;20279;-84
2022/11/24 01:36:37;;;;;;;9.95;4.07;;;19.60;99.90;;;;;;4243111;27;20213;-83
2022/11/24 01:38:39;;;;;;;7.60;3.78;;;19.60;99.90;;;;;;4244825;27;20220;-83
2022/11/24 01:40:41;;;;;;;9.15;3.90;;;19.60;99.90;;;;;;4243886;27;20274;-83
2022/11/24 01:42:48;;;;;;;7.47;3.78;;;19.60;99.90;;;;;;4243860;27;20610;-83
2022/11/24 01:45:13;;;;;;;11.25;4.03;;;19.60;99.90;;;;;;4245406;27;20259;-83
2022/11/24 01:47:31;;;;;;;9.05;3.58;;;19.60;99.90;;;;;;4245233;27;20265;-83
2022/11/24 01:49:41;;;;;;;8.02;3.85;;;19.50;99.90;;;;;;4243396;27;20711;-84
2022/11/24 01:52:01;;;;;;;9.93;3.65;;;19.50;99.90;;;;;;4242759;27;20217;-84
2022/11/24 01:54:08;;;;;;;6.93;3.55;;;19.50;99.90;;;;;;4243702;27;20282;-83
2022/11/24 01:56:12;;;;;;;8.70;3.42;;;19.60;99.90;;;;;;4245626;27;20240;-83
2022/11/24 01:58:19;;;;;;;8.90;4.03;;;19.50;99.90;;;;;;4242478;27;20670;-83
2022/11/24 02:00:21;;;;;;;8.88;3.95;;;19.50;99.90;;;;;;4242370;27;20213;-83
2022/11/24 02:02:25;;;;;;;9.85;3.92;;;19.50;99.90;;;;;;4245368;27;20246;-83
2022/11/24 02:04:31;;;;;;;7.43;3.45;;;19.50;99.90;;;;;;4244248;27;20261;-83
2022/11/24 02:06:36;;;;;;;10.40;4.50;;;19.50;99.90;;;;;;4243003;27;20271;-84
2022/11/24 02:08:46;;;;;;;8.70;3.72;;;19.50;99.90;;;;;;4246976;27;20224;-83
2022/11/24 02:10:49;;;;;;;7.88;3.88;;;19.40;99.90;;;;;;4244766;27;20249;-83
2022/11/24 02:12:54;;;;;;;9.43;3.88;;;19.40;99.90;;;;;;4244956;27;20209;-83
2022/11/24 02:14:58;;;;;;;9.02;4.05;;;19.40;99.90;;;;;;4244598;27;20214;-83
2022/11/24 02:17:01;;;;;;;7.95;3.88;;;19.40;99.90;;;;;;4245295;27;20266;-83
2022/11/24 02:19:07;;;;;;;9.45;3.80;;;19.40;99.90;;;;;;4246688;27;20213;-83
2022/11/24 02:21:11;;;;;;;8.25;4.07;;;19.50;99.90;;;;;;4241873;27;20631;-83
2022/11/24 02:23:19;;;;;;;11.25;4.20;;;19.40;99.90;;;;;;4243325;27;20229;-83
2022/11/24 02:25:35;;;;;;;10.23;4.13;;;19.40;99.90;;;;;;4244021;27;20274;-83
2022/11/24 02:27:38;;;;;;;8.25;3.85;;;19.40;99.90;;;;;;4243161;27;20622;-83
2022/11/24 02:29:41;;;;;;;7.07;3.72;;;19.40;99.90;;;;;;4244283;27;20213;-83
2022/11/24 02:31:48;;;;;;;11.32;4.15;;;19.40;99.90;;;;;;4245256;27;20217;-83
2022/11/24 02:33:50;;;;;;;10.30;4.40;;;19.40;99.90;;;;;;4245487;27;20217;-83
2022/11/24 02:35:52;;;;;;;11.50;3.67;;;19.50;99.90;;;;;;4243078;27;20237;-83
2022/11/24 02:37:55;;;;;;;9.05;3.90;;;19.40;99.90;;;;;;4245066;27;20213;-84
2022/11/24 02:39:57;;;;;;;8.88;3.22;;;19.40;99.90;;;;;;4245452;27;20255;-83
2022/11/24 02:42:03;;;;;;;9.38;3.47;;;19.40;99.90;;;;;;4243966;27;20266;-83
2022/11/24 02:44:07;;;;;;;10.23;3.85;;;19.40;99.90;;;;;;4245820;27;20733;-83
2022/11/24 02:46:10;;;;;;;9.20;3.80;;;19.40;99.90;;;;;;4246819;27;20213;-84
2022/11/24 02:48:14;;;;;;;9.05;4.05;;;19.40;99.90;;;;;;4246149;27;20265;-84
2022/11/24 02:50:16;;;;;;;11.13;4.10;;;19.40;99.90;;;;;;4245841;27;20214;-84
2022/11/24 02:52:19;;;;;;;7.90;3.75;;;19.40;99.90;;;;;;4244818;27;20258;-84
2022/11/24 02:54:21;;;;;;;11.10;4.28;;;19.50;99.90;;;;;;4244546;27;20274;-84
2022/11/24 02:56:25;;;;;;;8.63;3.55;;;19.40;99.90;;;;;;4243954;27;20237;-84
2022/11/24 02:58:27;;;;;;;10.43;3.80;;;19.40;99.90;;;;;;4244122;27;20209;-84
2022/11/24 03:00:31;;;;;;;14.05;4.53;;;19.50;99.90;;;;;;4243573;27;20225;-84
2022/11/24 03:02:33;;;;;;;9.75;3.97;;;19.40;99.90;;;;;;4243623;27;20235;-84
2022/11/24 03:04:36;;;;;;;13.30;3.92;;;19.40;99.90;;;;;;4245148;27;20277;-84
2022/11/24 03:06:39;;;;;;;8.00;3.72;;;19.40;99.90;;;;;;4225070;28;20251;-84
2022/11/24 03:08:41;;;;;;;9.85;3.85;;;19.40;99.90;;;;;;4243029;27;20293;-84
2022/11/24 03:10:44;;;;;;;8.68;3.55;;;19.40;99.90;;;;;;4244363;27;20241;-77
2022/11/24 03:12:46;;;;;;;10.52;3.80;;;19.40;99.90;;;;;;4243159;27;20653;-77
2022/11/24 03:14:48;;;;;;;10.18;3.78;;;19.40;99.90;;;;;;4242906;27;20209;-77
2022/11/24 03:16:52;;;;;;;9.98;3.78;;;19.40;99.90;;;;;;4243180;27;20233;-77
2022/11/24 03:18:54;;;;;;;9.65;3.63;;;19.30;99.90;;;;;;4238736;27;20205;-77
2022/11/24 03:20:59;;;;;;;8.63;3.80;;;19.30;99.90;;;;;;4232272;27;20229;-77
2022/11/24 03:23:02;;;;;;;10.50;4.15;;;19.30;99.90;;;;;;4226131;28;20275;-77
2022/11/24 03:25:04;;;;;;;9.07;3.55;;;19.30;99.90;;;;;;4227553;28;20290;-77
2022/11/24 03:27:07;;;;;;;10.32;3.80;;;19.40;99.90;;;;;;4227647;27;20726;-77
2022/11/24 03:29:09;;;;;;;10.10;4.00;;;19.40;99.90;;;;;;4225166;28;20283;-77
2022/11/24 03:31:13;;;;;;;10.55;3.97;;;19.40;99.90;;;;;;4227330;28;20372;-77
2022/11/24 03:33:17;;;;;;;10.85;4.30;;;19.30;99.90;;;;;;4227275;28;20230;-77
2022/11/24 03:35:19;;;;;;;10.77;3.90;;;19.30;99.90;;;;;;4227488;28;20217;-77
2022/11/24 03:37:21;;;;;;;10.63;3.47;;;19.30;99.90;;;;;;4227174;28;20294;-77
2022/11/24 03:39:25;;;;;;;8.32;3.65;;;19.30;99.90;;;;;;4227598;28;20559;-77
2022/11/24 03:41:28;;;;;;;8.40;3.50;;;19.30;99.90;;;;;;4227739;28;20611;-77
2022/11/24 03:43:30;;;;;;;9.95;4.10;;;19.30;99.90;;;;;;4225470;28;20225;-77
2022/11/24 03:45:32;;;;;;;9.38;3.38;;;19.30;99.90;;;;;;4223230;28;20210;-77
2022/11/24 03:47:35;;;;;;;8.70;3.63;;;19.30;99.90;;;;;;4226719;28;20247;-77
2022/11/24 03:49:40;;;;;;;9.30;3.75;;;19.30;99.90;;;;;;4224080;28;20213;-77
2022/11/24 03:51:42;;;;;;;8.65;3.38;;;19.30;99.90;;;;;;4224208;28;20279;-77
2022/11/24 03:53:44;;;;;;;10.35;3.45;;;19.20;99.90;;;;;;4227261;28;20221;-77
2022/11/24 03:55:47;;;;;;;7.82;3.08;;;19.30;99.90;;;;;;4227004;28;20271;-76
2022/11/24 03:57:49;;;;;;;10.00;3.80;;;19.30;99.90;;;;;;4224591;28;20213;-77
2022/11/24 03:59:51;;;;;;;8.02;3.38;;;19.30;99.90;;;;;;4227234;28;20217;-77
2022/11/24 04:01:54;;;;;;;9.65;3.78;;;19.30;99.90;;;;;;4221742;28;20205;-76
2022/11/24 04:03:56;;;;;;;8.57;3.30;;;19.30;99.90;;;;;;4226442;28;20691;-77
2022/11/24 04:06:00;;;;;;;8.10;3.35;;;19.30;99.90;;;;;;4225364;28;20240;-77
2022/11/24 04:08:04;;;;;;;8.60;3.88;;;19.30;99.90;;;;;;4225515;28;20213;-77
2022/11/24 04:10:07;;;;;;;8.30;3.80;;;19.30;99.90;;;;;;4226155;28;20222;-77
2022/11/24 04:14:29;;;;;;;9.68;3.15;;;19.30;99.90;;;;;;4227757;28;20634;-77
2022/11/24 04:16:32;;;;;;;10.02;3.58;;;19.20;99.90;;;;;;4225874;28;20283;-77
2022/11/24 04:18:34;;;;;;;7.35;3.35;;;19.20;99.90;;;;;;4226408;28;20674;-77
2022/11/24 04:20:37;;;;;;;6.15;3.25;;;19.30;99.90;;;;;;4230838;27;20299;-77
2022/11/24 04:22:41;;;;;;;10.30;3.28;;;19.20;99.90;;;;;;4238550;27;20218;-77
2022/11/24 04:24:44;;;;;;;10.18;3.58;;;19.20;99.90;;;;;;4235429;27;20282;-77
2022/11/24 04:26:46;;;;;;;6.63;3.10;;;19.10;99.90;;;;;;4232927;27;20213;-77
2022/11/24 04:28:48;;;;;;;9.32;3.38;;;19.10;99.90;;;;;;4238434;27;20254;-77
2022/11/24 04:30:50;;;;;;;7.72;3.15;;;19.10;99.90;;;;;;4235221;27;20213;-77
2022/11/24 04:32:53;;;;;;;6.90;3.28;;;19.10;99.90;;;;;;4224978;27;20214;-77
2022/11/24 04:34:55;;;;;;;6.82;3.05;;;19.10;99.90;;;;;;4235823;27;20290;-77
2022/11/24 04:36:57;;;;;;;7.82;3.50;;;19.10;99.90;;;;;;4236731;27;20229;-77
2022/11/24 04:39:01;;;;;;;8.68;2.90;;;19.10;99.90;;;;;;4227458;27;20213;-77
2022/11/24 04:41:04;;;;;;;7.13;3.30;;;19.10;99.90;;;;;;4228024;27;20559;-77
2022/11/24 04:43:07;;;;;;;11.43;3.50;;;19.10;99.90;;;;;;4236090;27;20221;-77
2022/11/24 04:45:10;;;;;;;7.38;3.20;;;19.10;99.90;;;;;;4232413;27;20574;-77
2022/11/24 04:47:16;;;;;;;8.52;3.13;;;19.10;99.90;;;;;;4237290;27;20258;-83
2022/11/24 04:49:19;;;;;;;5.97;2.75;;;19.10;99.90;;;;;;4232324;27;20217;-77
2022/11/24 04:51:21;;;;;;;9.75;3.53;;;19.10;99.90;;;;;;4230042;27;20225;-77
2022/11/24 04:53:24;;;;;;;6.55;3.03;;;19.10;99.90;;;;;;4231589;27;20274;-77
2022/11/24 04:55:27;;;;;;;8.27;3.17;;;19.10;99.90;;;;;;4238567;27;20259;-77
2022/11/24 04:57:30;;;;;;;7.43;3.17;;;19.10;99.90;;;;;;4238199;27;20577;-77
2022/11/24 04:59:32;;;;;;;8.60;3.30;;;19.10;99.90;;;;;;4238957;27;20213;-77
2022/11/24 05:01:34;;;;;;;7.00;2.92;;;19.10;99.90;;;;;;4238978;27;20233;-77
2022/11/24 05:03:37;;;;;;;7.65;2.97;;;19.00;99.90;;;;;;4238540;27;20540;-77
2022/11/24 05:05:39;;;;;;;8.75;3.08;;;19.00;99.90;;;;;;4234891;27;20211;-77
2022/11/24 05:07:41;;;;;;;5.95;2.83;;;19.10;99.90;;;;;;4229149;27;20210;-77
2022/11/24 05:12:02;;;;;;;6.43;2.72;;;19.10;99.90;;;;;;4237160;27;20206;-77
2022/11/24 05:14:04;;;;;;;7.18;2.80;;;19.10;99.90;;;;;;4235956;27;20625;-77
2022/11/24 05:16:07;;;;;;;7.05;2.95;;;19.10;99.90;;;;;;4235695;27;20225;-77
2022/11/24 05:18:12;;;;;;;6.93;2.78;;;19.10;99.90;;;;;;4235682;27;20232;-77
2022/11/24 05:20:15;;;;;;;4.85;2.17;;;19.00;99.90;;;;;;4239894;27;20957;-77
2022/11/24 05:22:17;;;;;;;4.93;2.38;;;19.10;99.90;;;;;;4244688;27;20232;-77
2022/11/24 05:24:19;;;;;;;6.00;2.47;;;19.10;99.90;;;;;;4244690;27;20205;-77
2022/11/24 05:26:22;;;;;;;6.18;2.53;;;19.00;99.90;;;;;;4241938;27;20229;-77
2022/11/24 05:28:25;;;;;;;5.40;2.95;;;19.10;99.90;;;;;;4245765;27;20229;-77
2022/11/24 05:30:28;;;;;;;6.75;2.50;;;19.00;99.90;;;;;;4245621;27;20216;-76
2022/11/24 05:32:30;;;;;;;5.15;2.30;;;19.00;99.90;;;;;;4243158;27;20220;-77
2022/11/24 05:34:32;;;;;;;6.00;2.78;;;19.00;99.90;;;;;;4242604;27;20213;-77
2022/11/24 05:36:53;;;;;;;5.72;2.53;;;19.00;99.90;;;;;;4243077;27;20213;-77
2022/11/24 05:38:55;;;;;;;7.70;2.30;;;19.00;99.90;;;;;;4236617;27;20390;-77
2022/11/24 05:41:00;;;;;;;6.22;2.45;;;18.90;99.90;;;;;;4244200;27;21050;-77
2022/11/24 05:43:02;;;;;;;5.22;2.70;;;18.90;99.90;;;;;;4244148;27;20221;-77
2022/11/24 05:45:10;;;;;;;5.40;2.38;;;18.90;99.90;;;;;;4245817;27;20258;-77
2022/11/24 05:47:12;;;;;;;4.78;2.47;;;18.90;99.90;;;;;;4243381;27;20605;-77
2022/11/24 05:49:14;;;;;;;5.90;2.40;;;18.90;99.90;;;;;;4244122;27;20278;-77
2022/11/24 05:51:17;;;;;;;5.28;2.42;;;18.90;99.90;;;;;;4246699;27;20722;-77
2022/11/24 05:53:19;;;;;;;4.78;2.58;;;18.90;99.90;;;;;;4244477;27;20259;-77
2022/11/24 05:55:21;;;;;;;4.63;2.30;;;18.90;99.90;;;;;;4246810;27;20276;-77
2022/11/24 05:57:24;;;;;;;6.43;2.45;;;18.80;99.90;;;;;;4241527;27;20233;-77
2022/11/24 05:59:26;;;;;;;4.55;2.22;;;18.90;99.90;;;;;;4237198;27;20218;-83
2022/11/24 06:01:30;;;;;;;6.40;2.25;;;18.90;99.90;;;;;;4239253;27;20622;-83
2022/11/24 06:03:32;;;;;;;6.45;2.25;;;18.90;99.90;;;;;;4246107;27;20209;-83
2022/11/24 06:05:36;;;;;;;5.32;2.22;;;18.90;99.90;;;;;;4245135;27;20226;-84
2022/11/24 06:07:38;;;;;;;4.72;2.50;;;19.00;99.90;;;;;;4237969;27;20561;-83
2022/11/24 06:09:42;;;;;;;6.18;2.60;;;19.00;99.90;;;;;;4242903;27;20266;-83
2022/11/24 06:11:44;;;;;;;4.78;2.42;;;19.00;99.90;;;;;;4248825;27;20209;-84
2022/11/24 06:13:48;;;;;;;4.90;2.30;;;19.10;99.90;;;;;;4235639;27;20220;-84
2022/11/24 06:15:50;;;;;;;7.07;2.35;;;19.10;99.90;;;;;;4245924;27;20649;-85
2022/11/24 06:17:55;;;;;;;5.13;2.17;;;19.10;99.90;;;;;;4249346;27;20237;-84
2022/11/24 06:19:57;;;;;;;5.10;2.80;;;19.10;99.90;;;;;;4245313;27;20238;-84
2022/11/24 06:22:00;;;;;;;4.00;2.08;;;19.10;99.90;;;;;;4232020;28;20610;-84
2022/11/24 06:24:02;;;;;;;5.25;2.10;;;19.10;99.90;;;;;;4218902;27;20268;-84
2022/11/24 06:26:04;;;;;;;6.05;2.65;;;19.10;99.90;;;;;;4238867;27;20242;-84
2022/11/24 06:28:09;;;;;;;5.65;2.40;;;19.10;99.90;;;;;;4240048;27;20646;-84
2022/11/24 06:30:13;;;;;;;5.03;2.40;;;19.10;99.90;;;;;;4227820;28;20616;-84
2022/11/24 06:32:16;;;;;;;5.05;2.30;;;19.10;99.90;;;;;;4224907;28;20245;-84
2022/11/24 06:34:21;;;;;;;5.63;2.03;;;19.10;99.90;;;;;;4231219;27;20212;-84
2022/11/24 06:36:24;;;;;;;4.07;1.85;;;19.10;99.90;;;;;;4231789;27;20598;-85
2022/11/24 06:38:26;;;;;;;4.75;2.00;;;19.20;99.90;;;;;;4231551;27;20281;-85
2022/11/24 06:40:29;;;;;;;5.43;2.42;;;19.20;99.90;;;;;;4230648;28;20267;-85
2022/11/24 06:42:31;;;;;;;5.63;2.63;;;19.20;99.90;;;;;;4226183;27;20266;-85
2022/11/24 06:44:33;;;;;;;4.35;2.03;;;19.20;99.90;;;;;;4237665;27;20284;-85
2022/11/24 06:46:35;;;;;;;5.85;2.50;;;19.20;99.90;;;;;;4230574;28;20272;-84
2022/11/24 06:48:38;;;;;;;4.88;2.10;;;19.20;99.90;;;;;;4228971;28;20222;-84
2022/11/24 06:50:42;;;;;;;6.68;2.50;;;19.30;99.90;;;;;;4223866;28;20214;-85
2022/11/24 06:52:44;;;;;;;7.32;2.03;;;19.20;99.90;;;;;;4231309;28;20289;-84
2022/11/24 06:54:46;;;;;;;4.53;2.08;;;19.30;99.90;;;;;;4227519;27;20209;-84
2022/11/24 06:56:49;;;;;;;4.60;2.20;;;19.30;99.90;;;;;;4229810;28;20206;-85
2022/11/24 06:58:53;;;;;;;3.92;1.88;;;19.30;99.90;;;;;;4230343;28;20275;-85
2022/11/24 07:00:55;;;;;;;6.07;1.98;;;19.30;99.90;;;;;;4228357;28;20206;-84
2022/11/24 07:02:58;;;;;;;4.28;2.00;;;19.30;99.90;;;;;;4232907;27;20213;-84
2022/11/24 07:05:00;;;;;;;4.53;2.03;;;19.30;99.90;;;;;;4226584;28;20226;-84
2022/11/24 07:07:04;;;;;;;4.43;1.92;;;19.30;99.90;;;;;;4230175;28;20225;-84
2022/11/24 07:09:08;;;;;;;5.88;2.25;;;19.40;99.90;;;;;;4225769;28;20214;-84
2022/11/24 07:11:14;;;;;;;6.35;2.33;;;19.40;99.90;;;;;;4219292;28;20248;-85
2022/11/24 07:13:16;;;;;;;6.18;2.05;;;19.40;99.90;;;;;;4223442;28;20682;-84
2022/11/24 07:15:19;;;;;;;4.35;1.98;;;19.40;99.90;;;;;;4220430;28;20263;-84
2022/11/24 07:17:21;;;;;;;5.93;2.22;;;19.40;99.90;;;;;;4227353;28;20671;-85
2022/11/24 07:19:23;;;;;;;4.10;1.88;;;19.40;99.90;;;;;;4228997;27;20335;-84
2022/11/24 07:21:27;;;;;;;6.15;2.08;;;19.40;99.90;;;;;;4227690;28;20237;-84
2022/11/24 07:23:31;;;;;;;4.38;2.03;;;19.50;99.90;;;;;;4229149;27;20214;-84
2022/11/24 07:25:33;;;;;;;5.22;2.20;;;19.50;99.90;;;;;;4230917;28;20247;-85
2022/11/24 07:27:36;;;;;;;6.78;2.33;;;19.50;99.90;;;;;;4227163;28;20952;-84
2022/11/24 07:29:38;;;;;;;5.13;1.80;;;19.50;99.90;;;;;;4231208;28;21995;-84
2022/11/24 07:31:41;;;;;;;4.85;2.00;;;19.50;99.90;;;;;;4230696;28;20213;-85
2022/11/24 07:33:43;;;;;;;4.78;2.05;;;19.50;99.90;;;;;;4228705;28;20274;-84
2022/11/24 07:35:45;;;;;;;4.80;2.03;;;19.50;99.90;;;;;;4229313;27;20234;-84
2022/11/24 07:37:48;;;;;;;4.47;2.25;;;19.60;99.90;;;;;;4220062;28;20256;-84
2022/11/24 07:39:51;;;;;;;5.47;2.00;;;19.60;99.90;;;;;;4226434;28;20267;-84
2022/11/24 07:41:54;;;;;;;4.10;1.65;;;19.60;99.90;;;;;;4228745;28;20719;-84
2022/11/24 07:43:56;;;;;;;5.75;1.98;;;19.60;99.90;;;;;;4226993;28;20263;-84
2022/11/24 07:45:59;;;;;;;4.53;2.17;;;19.50;99.90;;;;;;4230758;28;20244;-84
2022/11/24 07:48:01;;;;;;;5.30;1.83;;;19.60;99.90;;;;;;4229973;28;20267;-84
2022/11/24 07:50:03;;;;;;;4.30;2.03;;;19.60;99.90;;;;;;4230141;28;20263;-84
2022/11/24 07:52:07;;;;;;;5.88;2.10;;;19.60;99.90;;;;;;4229207;28;20267;-83
2022/11/24 07:54:15;;;;;;;5.35;1.80;;;19.60;99.90;;;;;;4228351;28;20303;-82
2022/11/24 07:56:18;;;;;;;4.45;2.05;;;19.60;99.90;;;;;;4231224;28;20214;-81
2022/11/24 07:58:21;;;;;;;7.28;2.17;;;19.70;99.90;;;;;;4231284;27;20225;-81
2022/11/24 08:00:23;;;;;;;8.30;2.10;;;19.70;99.90;;;;;;4229023;28;20213;-82
2022/11/24 08:02:25;;;;;;;11.95;2.42;;;19.80;99.90;;;;;;4227694;28;20214;-82
2022/11/24 08:04:28;;;;;;;9.02;2.28;;;19.80;99.90;;;;;;4223497;28;20218;-85
2022/11/24 08:06:30;;;;;;;6.18;2.03;;;19.80;99.90;;;;;;4215077;28;20218;-83
2022/11/24 08:08:33;;;;;;;6.88;2.10;;;19.80;99.90;;;;;;4222876;28;20263;-83
2022/11/24 08:10:35;;;;;;;6.65;2.33;;;19.90;99.90;;;;;;4226778;28;20217;-83
2022/11/24 08:12:39;;;;;;;7.35;2.38;;;20.00;99.90;;;;;;4227978;28;20213;-82
2022/11/24 08:14:41;;;;;;;4.80;1.88;;;20.00;99.90;;;;;;4234262;28;20270;-83
2022/11/24 08:16:43;;;;;;;4.00;1.85;;;20.00;99.90;;;;;;4220409;28;20715;-81
2022/11/24 08:18:49;;;;;;;7.20;1.95;;;20.00;99.90;;;;;;4229662;28;20628;-86
2022/11/24 08:20:52;;;;;;;5.43;1.73;;;20.00;99.90;;;;;;4224603;28;20229;-83
2022/11/24 08:22:57;;;;;;;6.03;1.90;;;20.00;99.90;;;;;;4213875;28;20214;-75
2022/11/24 08:24:59;;;;;;;6.18;1.88;;;20.00;99.90;;;;;;4220609;28;20217;-83
2022/11/24 08:27:01;;;;;;;4.15;1.88;;;20.00;99.90;;;;;;4228306;28;20209;-84
2022/11/24 08:29:05;;;;;;;3.80;1.92;;;20.00;99.90;;;;;;4224725;28;20210;-84
2022/11/24 08:31:09;;;;;;;9.23;1.98;;;20.10;99.90;;;;;;4220315;28;20284;-86
2022/11/24 08:33:12;;;;;;;5.25;2.05;;;20.00;99.90;;;;;;4218885;28;20218;-84
2022/11/24 08:35:14;;;;;;;4.93;1.98;;;20.00;99.90;;;;;;4228962;28;20214;-82
2022/11/24 08:37:17;;;;;;;5.35;1.70;;;20.10;99.90;;;;;;4222034;28;20215;-84
2022/11/24 08:39:19;;;;;;;6.85;2.00;;;20.10;99.90;;;;;;4224283;28;20237;-81
2022/11/24 08:41:22;;;;;;;6.18;1.85;;;20.20;99.90;;;;;;4227182;28;21030;-82
2022/11/24 08:43:24;;;;;;;12.90;2.35;;;20.20;99.90;;;;;;4221007;28;20726;-84
2022/11/24 08:45:28;;;;;;;5.05;1.90;;;20.30;99.90;;;;;;4220199;28;20218;-82
2022/11/24 08:47:30;;;;;;;6.10;2.05;;;20.30;99.90;;;;;;4224889;28;20331;-83
2022/11/24 08:49:33;;;;;;;4.50;1.65;;;20.30;99.90;;;;;;4226445;28;20218;-82
2022/11/24 08:51:35;;;;;;;4.95;1.67;;;20.30;99.90;;;;;;4224661;28;20218;-83
2022/11/24 08:53:40;;;;;;;6.05;1.90;;;20.30;99.90;;;;;;4224168;28;20206;-82
2022/11/24 08:55:43;;;;;;;6.53;2.03;;;20.30;99.90;;;;;;4225667;28;20256;-85
2022/11/24 08:57:45;;;;;;;7.13;1.92;;;20.40;99.90;;;;;;4224614;28;20623;-83
2022/11/24 08:59:47;;;;;;;5.75;2.15;;;20.40;99.90;;;;;;4221157;28;20568;-84
2022/11/24 09:01:51;;;;;;;5.60;2.13;;;20.40;99.90;;;;;;4221957;28;20330;-84
2022/11/24 09:03:54;;;;;;;4.63;1.88;;;20.50;99.90;;;;;;4223930;28;20206;-78
2022/11/24 09:05:56;;;;;;;7.20;1.80;;;20.50;99.90;;;;;;4223069;28;20218;-80
2022/11/24 09:07:58;;;;;;;5.40;2.00;;;20.50;99.90;;;;;;4230060;28;20275;-81
2022/11/24 09:10:01;;;;;;;7.07;1.85;;;20.50;99.90;;;;;;4219428;28;20218;-79
2022/11/24 09:12:03;;;;;;;5.28;1.63;;;20.50;99.90;;;;;;4228946;28;20262;-85
2022/11/24 09:14:05;;;;;;;6.20;2.03;;;20.60;99.90;;;;;;4225421;27;20571;-81
2022/11/24 09:16:10;;;;;;;5.35;1.60;;;20.40;99.90;;;;;;4225203;28;20599;-84
2022/11/24 09:18:13;;;;;;;7.10;2.33;;;20.50;99.90;;;;;;4229777;27;20259;-82
2022/11/24 09:20:16;;;;;;;7.90;1.83;;;20.50;99.90;;;;;;4227246;27;20229;-81
2022/11/24 09:22:18;;;;;;;5.35;1.95;;;20.40;99.90;;;;;;4231200;28;20235;-82
2022/11/24 09:24:21;;;;;;;5.35;1.77;;;20.40;99.90;;;;;;4223171;28;20218;-84
2022/11/24 09:26:25;;;;;;;5.63;1.92;;;20.50;99.90;;;;;;4223407;28;20218;-84
2022/11/24 09:28:27;;;;;;;3.13;1.27;;;20.60;99.90;;;;;;4215422;28;20222;-82
2022/11/24 09:30:30;;;;;;;6.95;2.03;;;20.50;99.90;;;;;;4217108;28;20275;-81
2022/11/24 09:32:36;;;;;;;6.72;2.30;;;20.60;99.90;;;;;;4228254;27;20735;-81
2022/11/24 09:34:40;;;;;;;4.82;1.80;;;20.60;99.90;;;;;;4228400;27;20210;-79
2022/11/24 09:36:42;;;;;;;6.93;2.40;;;20.60;99.90;;;;;;4216413;27;20219;-80
2022/11/24 09:38:45;;;;;;;5.20;2.08;;;20.60;99.90;;;;;;4216103;28;20206;-79
2022/11/24 09:40:52;;;;;;;6.53;1.95;;;20.60;99.90;;;;;;4226308;28;20602;-83
2022/11/24 09:43:02;;;;;;;5.45;1.90;;;20.70;99.90;;;;;;4215111;28;20214;-78
2022/11/24 09:45:30;;;;;;;4.40;1.70;;;20.70;99.90;;;;;;4224719;27;20267;-82
2022/11/24 09:47:43;;;;;;;4.53;1.67;;;20.70;99.90;;;;;;4229459;27;20221;-80
2022/11/24 09:49:54;;;;;;;7.03;1.73;;;20.70;99.90;;;;;;4229486;27;20263;-81
2022/11/24 09:51:58;;;;;;;6.22;2.13;;;20.60;99.90;;;;;;4231544;28;20234;-82
2022/11/24 09:54:05;;;;;;;5.15;1.73;;;20.70;99.90;;;;;;4230563;28;20266;-80
2022/11/24 09:56:20;;;;;;;5.25;1.95;;;20.70;99.90;;;;;;4226527;27;20267;-79
2022/11/24 09:58:35;;;;;;;4.35;1.40;;;20.70;99.90;;;;;;4227750;27;20282;-82
2022/11/24 10:00:38;;;;;;;8.77;2.20;;;20.70;99.90;;;;;;4224940;27;20237;-77
2022/11/24 10:02:40;;;;;;;9.85;2.00;;;20.70;99.90;;;;;;4225987;28;20303;-80
2022/11/24 10:04:45;;;;;;;11.98;2.25;;;20.70;99.90;;;;;;4225542;27;20214;-78
2022/11/24 10:06:57;;;;;;;9.43;2.20;;;20.80;99.90;;;;;;4224972;28;20255;-80
2022/11/24 10:09:19;;;;;;;5.28;2.15;;;20.70;99.90;;;;;;4226160;28;20210;-80
2022/11/24 10:11:31;;;;;;;7.40;1.77;;;20.80;99.90;;;;;;4227165;28;20213;-77
2022/11/24 10:13:54;;;;;;;11.85;2.13;;;20.90;99.90;;;;;;4227760;28;20221;-81
2022/11/24 10:16:07;;;;;;;5.85;1.70;;;20.90;99.90;;;;;;4227474;27;20899;-78
2022/11/24 10:18:37;;;;;;;11.75;2.22;;;20.90;99.90;;;;;;4225981;28;20217;-80
2022/11/24 10:20:50;;;;;;;7.65;1.90;;;20.90;99.90;;;;;;4227117;27;20230;-79
2022/11/24 10:23:12;;;;;;;6.97;1.88;;;20.90;99.90;;;;;;4228565;28;20213;-79
2022/11/24 10:25:21;;;;;;;8.38;2.20;;;20.90;99.90;;;;;;4227861;27;20225;-80
2022/11/24 10:27:28;;;;;;;6.40;2.00;;;20.90;99.90;;;;;;4228434;28;20243;-79
2022/11/24 10:29:34;;;;;;;6.90;1.92;;;20.90;99.90;;;;;;4226653;27;20235;-79
2022/11/24 10:31:40;;;;;;;6.85;2.25;;;20.90;99.90;;;;;;4229288;27;20243;-80
2022/11/24 10:33:43;;;;;;;6.68;2.22;;;20.90;99.90;;;;;;4229376;28;20210;-80
2022/11/24 10:35:51;;;;;;;6.65;2.10;;;20.90;99.90;;;;;;4227394;28;20217;-80
2022/11/24 10:38:07;;;;;;;5.63;1.77;;;20.90;99.90;;;;;;4227276;28;20247;-79
2022/11/24 10:40:18;;;;;;;5.47;2.05;;;20.90;99.90;;;;;;4229312;27;20222;-79
2022/11/24 10:42:26;;;;;;;6.88;2.08;;;20.90;99.90;;;;;;4228510;27;20683;-77
2022/11/24 10:44:28;;;;;;;6.82;1.70;;;20.90;99.90;;;;;;4219962;28;20303;-77
2022/11/24 10:46:31;;;;;;;7.03;1.85;;;20.90;99.90;;;;;;4224240;28;20267;-77
2022/11/24 10:48:41;;;;;;;9.00;2.22;;;20.90;99.90;;;;;;4228106;27;20619;-77